sensor_id;sensor_type;location;lat;lon;timestamp;pressure;altitude;pressure_sealevel;temperature;humidity
69737;BME280;64476;55.004;73.342;2022-10-31T00:04:20;100731.56;;;1.03;55.59
69737;BME280;64476;55.004;73.342;2022-10-31T00:06:46;100630.72;;;0.40;55.96
69737;BME280;64476;55.004;73.342;2022-10-31T00:09:13;100697.25;;;0.85;56.14
69737;BME280;64476;55.004;73.342;2022-10-31T00:11:39;100705.78;;;0.86;55.74
69737;BME280;64476;55.004;73.342;2022-10-31T00:14:06;100733.56;;;0.96;55.75
69737;BME280;64476;55.004;73.342;2022-10-31T00:16:35;100735.16;;;0.99;56.24
69737;BME280;64476;55.004;73.342;2022-10-31T00:19:04;100700.84;;;0.81;55.93
69737;BME280;64476;55.004;73.342;2022-10-31T00:24:35;100745.97;;;1.07;55.81
69737;BME280;64476;55.004;73.342;2022-10-31T00:27:01;100738.06;;;1.10;55.69
69737;BME280;64476;55.004;73.342;2022-10-31T00:29:28;100717.31;;;0.96;55.53
69737;BME280;64476;55.004;73.342;2022-10-31T00:31:54;100735.81;;;1.04;55.58
69737;BME280;64476;55.004;73.342;2022-10-31T00:34:21;100705.22;;;0.79;56.00
69737;BME280;64476;55.004;73.342;2022-10-31T00:36:47;100739.81;;;0.91;55.76
69737;BME280;64476;55.004;73.342;2022-10-31T00:43:01;100766.47;;;0.88;56.17
69737;BME280;64476;55.004;73.342;2022-10-31T00:45:28;100753.72;;;0.87;55.94
69737;BME280;64476;55.004;73.342;2022-10-31T00:48:00;100753.84;;;0.84;55.94
69737;BME280;64476;55.004;73.342;2022-10-31T00:50:32;100744.03;;;0.73;56.04
69737;BME280;64476;55.004;73.342;2022-10-31T00:53:04;100742.22;;;0.75;56.24
69737;BME280;64476;55.004;73.342;2022-10-31T00:55:34;100728.38;;;0.59;56.45
69737;BME280;64476;55.004;73.342;2022-10-31T00:58:00;100746.72;;;0.70;56.41
69737;BME280;64476;55.004;73.342;2022-10-31T01:00:37;100713.09;;;0.56;56.39
69737;BME280;64476;55.004;73.342;2022-10-31T01:03:05;100747.41;;;0.73;56.23
69737;BME280;64476;55.004;73.342;2022-10-31T01:05:31;100762.59;;;0.80;56.30
69737;BME280;64476;55.004;73.342;2022-10-31T01:08:02;100763.28;;;0.83;56.02
69737;BME280;64476;55.004;73.342;2022-10-31T01:10:29;100748.13;;;0.77;56.04
69737;BME280;64476;55.004;73.342;2022-10-31T01:13:04;100752.31;;;0.80;55.86
69737;BME280;64476;55.004;73.342;2022-10-31T01:15:41;100744.22;;;0.68;56.34
69737;BME280;64476;55.004;73.342;2022-10-31T01:18:10;100756.63;;;0.79;56.07
69737;BME280;64476;55.004;73.342;2022-10-31T01:23:56;100742.44;;;0.70;55.76
69737;BME280;64476;55.004;73.342;2022-10-31T01:26:28;100747.59;;;0.70;55.77
69737;BME280;64476;55.004;73.342;2022-10-31T01:29:28;100771.56;;;0.90;56.21
69737;BME280;64476;55.004;73.342;2022-10-31T01:31:56;100767.38;;;0.87;55.85
69737;BME280;64476;55.004;73.342;2022-10-31T01:34:22;100745.88;;;0.69;55.70
69737;BME280;64476;55.004;73.342;2022-10-31T01:36:49;100777.41;;;0.93;55.48
69737;BME280;64476;55.004;73.342;2022-10-31T01:39:17;100762.19;;;0.89;55.39
69737;BME280;64476;55.004;73.342;2022-10-31T01:41:48;100773.81;;;0.98;55.39
69737;BME280;64476;55.004;73.342;2022-10-31T01:47:32;100769.84;;;1.09;55.31
69737;BME280;64476;55.004;73.342;2022-10-31T01:50:03;100726.13;;;0.90;54.84
69737;BME280;64476;55.004;73.342;2022-10-31T01:53:11;100732.06;;;0.92;55.24
69737;BME280;64476;55.004;73.342;2022-10-31T01:55:53;100731.63;;;1.02;55.40
69737;BME280;64476;55.004;73.342;2022-10-31T01:58:23;100749.75;;;1.17;55.17
69737;BME280;64476;55.004;73.342;2022-10-31T02:00:56;100745.97;;;1.26;55.13
69737;BME280;64476;55.004;73.342;2022-10-31T02:03:24;100772.41;;;1.47;55.32
69737;BME280;64476;55.004;73.342;2022-10-31T02:05:57;100743.84;;;1.34;55.00
69737;BME280;64476;55.004;73.342;2022-10-31T02:08:33;100760.31;;;1.49;54.76
69737;BME280;64476;55.004;73.342;2022-10-31T02:11:07;100728.56;;;1.31;54.79
69737;BME280;64476;55.004;73.342;2022-10-31T02:13:41;100766.72;;;1.59;54.59
69737;BME280;64476;55.004;73.342;2022-10-31T02:16:13;100730.72;;;1.40;54.62
69737;BME280;64476;55.004;73.342;2022-10-31T02:18:44;100716.38;;;1.35;54.83
69737;BME280;64476;55.004;73.342;2022-10-31T02:27:17;100782.69;;;1.85;54.39
69737;BME280;64476;55.004;73.342;2022-10-31T02:29:57;100788.44;;;1.90;54.20
69737;BME280;64476;55.004;73.342;2022-10-31T02:47:29;100720.91;;;1.49;54.26
69737;BME280;64476;55.004;73.342;2022-10-31T02:52:32;100807.91;;;1.96;55.27
69737;BME280;64476;55.004;73.342;2022-10-31T02:58:10;100781.00;;;1.84;54.89
69737;BME280;64476;55.004;73.342;2022-10-31T03:06:17;100825.44;;;2.24;55.73
69737;BME280;64476;55.004;73.342;2022-10-31T03:15:08;100815.59;;;2.32;54.74
69737;BME280;64476;55.004;73.342;2022-10-31T03:18:08;100752.94;;;1.97;55.04
69737;BME280;64476;55.004;73.342;2022-10-31T03:21:04;100804.53;;;2.30;54.93
69737;BME280;64476;55.004;73.342;2022-10-31T03:24:06;100813.94;;;2.31;55.05
69737;BME280;64476;55.004;73.342;2022-10-31T03:26:44;100816.81;;;2.25;54.95
69737;BME280;64476;55.004;73.342;2022-10-31T03:29:15;100802.84;;;2.11;55.30
69737;BME280;64476;55.004;73.342;2022-10-31T03:31:50;100811.34;;;2.13;55.55
69737;BME280;64476;55.004;73.342;2022-10-31T03:34:22;100766.91;;;1.91;55.23
69737;BME280;64476;55.004;73.342;2022-10-31T03:36:51;100822.63;;;2.28;55.10
69737;BME280;64476;55.004;73.342;2022-10-31T03:39:20;100675.19;;;1.36;55.35
69737;BME280;64476;55.004;73.342;2022-10-31T03:45:07;100818.78;;;2.20;55.26
69737;BME280;64476;55.004;73.342;2022-10-31T03:47:36;100792.97;;;2.02;55.15
69737;BME280;64476;55.004;73.342;2022-10-31T03:50:06;100762.22;;;1.82;55.25
69737;BME280;64476;55.004;73.342;2022-10-31T03:52:38;100825.81;;;2.16;55.80
69737;BME280;64476;55.004;73.342;2022-10-31T04:00:35;100828.47;;;2.14;55.75
69737;BME280;64476;55.004;73.342;2022-10-31T04:03:15;100783.66;;;1.82;55.78
69737;BME280;64476;55.004;73.342;2022-10-31T04:05:54;100797.22;;;1.86;55.81
69737;BME280;64476;55.004;73.342;2022-10-31T04:08:26;100793.16;;;1.80;55.64
69737;BME280;64476;55.004;73.342;2022-10-31T04:10:56;100740.50;;;1.51;56.01
69737;BME280;64476;55.004;73.342;2022-10-31T04:13:29;100828.91;;;2.05;55.61
69737;BME280;64476;55.004;73.342;2022-10-31T04:16:10;100782.03;;;1.80;56.02
69737;BME280;64476;55.004;73.342;2022-10-31T04:18:38;100830.41;;;2.09;55.63
69737;BME280;64476;55.004;73.342;2022-10-31T04:21:06;100842.25;;;2.13;55.82
69737;BME280;64476;55.004;73.342;2022-10-31T04:23:34;100828.69;;;2.10;55.84
69737;BME280;64476;55.004;73.342;2022-10-31T04:28:39;100828.47;;;2.14;55.87
69737;BME280;64476;55.004;73.342;2022-10-31T04:31:11;100760.56;;;1.81;55.90
69737;BME280;64476;55.004;73.342;2022-10-31T04:33:38;100821.63;;;2.13;55.91
69737;BME280;64476;55.004;73.342;2022-10-31T04:36:05;100804.19;;;2.01;55.99
69737;BME280;64476;55.004;73.342;2022-10-31T04:38:32;100847.75;;;2.25;55.77
69737;BME280;64476;55.004;73.342;2022-10-31T04:40:59;100832.72;;;2.15;56.38
69737;BME280;64476;55.004;73.342;2022-10-31T04:43:42;100777.31;;;1.89;56.13
69737;BME280;64476;55.004;73.342;2022-10-31T04:46:09;100831.06;;;2.32;55.79
69737;BME280;64476;55.004;73.342;2022-10-31T04:48:35;100828.28;;;2.36;55.69
69737;BME280;64476;55.004;73.342;2022-10-31T04:51:13;100837.44;;;2.42;55.52
69737;BME280;64476;55.004;73.342;2022-10-31T04:53:49;100814.91;;;2.28;55.80
69737;BME280;64476;55.004;73.342;2022-10-31T04:57:00;100816.06;;;2.23;55.90
69737;BME280;64476;55.004;73.342;2022-10-31T04:59:28;100791.34;;;2.18;55.48
69737;BME280;64476;55.004;73.342;2022-10-31T05:01:55;100844.50;;;2.56;55.73
69737;BME280;64476;55.004;73.342;2022-10-31T05:04:32;100788.41;;;2.26;55.54
69737;BME280;64476;55.004;73.342;2022-10-31T05:08:03;100844.69;;;2.69;55.54
69737;BME280;64476;55.004;73.342;2022-10-31T05:16:42;100840.91;;;2.76;54.94
69737;BME280;64476;55.004;73.342;2022-10-31T05:20:12;100800.91;;;2.51;55.13
69737;BME280;64476;55.004;73.342;2022-10-31T05:23:18;100824.94;;;2.69;55.53
69737;BME280;64476;55.004;73.342;2022-10-31T05:25:52;100849.72;;;2.89;55.17
69737;BME280;64476;55.004;73.342;2022-10-31T05:28:22;100853.13;;;2.89;55.72
69737;BME280;64476;55.004;73.342;2022-10-31T05:30:52;100825.09;;;2.66;55.61
69737;BME280;64476;55.004;73.342;2022-10-31T05:33:20;100849.84;;;2.86;55.07
69737;BME280;64476;55.004;73.342;2022-10-31T05:36:07;100808.41;;;2.56;55.32
69737;BME280;64476;55.004;73.342;2022-10-31T05:39:10;100862.50;;;2.90;55.26
69737;BME280;64476;55.004;73.342;2022-10-31T05:42:19;100830.69;;;2.57;55.56
69737;BME280;64476;55.004;73.342;2022-10-31T05:44:48;100831.38;;;2.60;55.43
69737;BME280;64476;55.004;73.342;2022-10-31T05:47:35;100866.41;;;2.82;55.48
69737;BME280;64476;55.004;73.342;2022-10-31T05:50:21;100873.50;;;2.94;55.16
69737;BME280;64476;55.004;73.342;2022-10-31T05:53:03;100847.06;;;2.73;55.36
69737;BME280;64476;55.004;73.342;2022-10-31T05:55:38;100878.50;;;2.97;55.73
69737;BME280;64476;55.004;73.342;2022-10-31T05:58:14;100860.03;;;2.89;55.78
69737;BME280;64476;55.004;73.342;2022-10-31T06:00:52;100875.88;;;2.99;55.43
69737;BME280;64476;55.004;73.342;2022-10-31T06:03:19;100824.16;;;2.67;55.85
69737;BME280;64476;55.004;73.342;2022-10-31T06:05:55;100885.34;;;2.98;55.64
69737;BME280;64476;55.004;73.342;2022-10-31T06:08:30;100864.41;;;2.87;55.64
69737;BME280;64476;55.004;73.342;2022-10-31T06:11:03;100864.75;;;2.81;55.92
69737;BME280;64476;55.004;73.342;2022-10-31T06:14:23;100900.50;;;3.04;55.29
69737;BME280;64476;55.004;73.342;2022-10-31T06:16:55;100863.91;;;2.80;55.50
69737;BME280;64476;55.004;73.342;2022-10-31T06:19:41;100872.16;;;2.87;55.15
69737;BME280;64476;55.004;73.342;2022-10-31T06:22:10;100894.47;;;2.88;55.50
69737;BME280;64476;55.004;73.342;2022-10-31T06:24:42;100892.63;;;2.90;55.69
69737;BME280;64476;55.004;73.342;2022-10-31T06:27:57;100884.44;;;2.82;55.60
69737;BME280;64476;55.004;73.342;2022-10-31T06:30:56;100859.88;;;2.75;55.66
69737;BME280;64476;55.004;73.342;2022-10-31T06:33:23;100895.06;;;2.93;55.48
69737;BME280;64476;55.004;73.342;2022-10-31T06:36:02;100880.56;;;2.90;55.38
69737;BME280;64476;55.004;73.342;2022-10-31T06:38:29;100892.78;;;3.04;55.34
69737;BME280;64476;55.004;73.342;2022-10-31T06:40:57;100865.31;;;2.86;55.18
69737;BME280;64476;55.004;73.342;2022-10-31T06:43:42;100891.03;;;3.05;55.14
69737;BME280;64476;55.004;73.342;2022-10-31T06:46:39;100858.41;;;2.86;55.38
69737;BME280;64476;55.004;73.342;2022-10-31T06:50:08;100923.56;;;3.25;55.29
69737;BME280;64476;55.004;73.342;2022-10-31T06:52:57;100764.44;;;2.24;55.29
69737;BME280;64476;55.004;73.342;2022-10-31T06:55:26;100927.38;;;3.18;55.18
69737;BME280;64476;55.004;73.342;2022-10-31T06:57:56;100885.66;;;2.92;55.35
69737;BME280;64476;55.004;73.342;2022-10-31T07:00:24;100899.59;;;3.05;55.15
69737;BME280;64476;55.004;73.342;2022-10-31T07:03:29;100913.69;;;3.15;55.26
69737;BME280;64476;55.004;73.342;2022-10-31T07:05:56;100872.75;;;2.92;55.35
69737;BME280;64476;55.004;73.342;2022-10-31T07:08:23;100883.28;;;3.05;55.17
69737;BME280;64476;55.004;73.342;2022-10-31T07:11:28;100931.81;;;3.31;54.75
69737;BME280;64476;55.004;73.342;2022-10-31T07:14:07;100882.53;;;3.03;54.83
69737;BME280;64476;55.004;73.342;2022-10-31T07:16:33;100879.13;;;3.02;54.93
69737;BME280;64476;55.004;73.342;2022-10-31T07:19:34;100937.88;;;3.30;54.34
69737;BME280;64476;55.004;73.342;2022-10-31T07:22:08;100739.13;;;1.98;54.74
69737;BME280;64476;55.004;73.342;2022-10-31T07:24:36;100920.63;;;3.15;54.78
69737;BME280;64476;55.004;73.342;2022-10-31T07:27:46;100871.31;;;2.86;54.54
69737;BME280;64476;55.004;73.342;2022-10-31T07:30:14;100862.44;;;2.75;54.78
69737;BME280;64476;55.004;73.342;2022-10-31T07:32:46;100937.16;;;3.28;54.67
69737;BME280;64476;55.004;73.342;2022-10-31T07:35:15;100942.06;;;3.33;54.32
69737;BME280;64476;55.004;73.342;2022-10-31T07:37:47;100889.59;;;2.99;54.64
69737;BME280;64476;55.004;73.342;2022-10-31T07:40:25;100923.44;;;3.10;54.09
69737;BME280;64476;55.004;73.342;2022-10-31T07:42:53;100952.53;;;3.30;54.21
69737;BME280;64476;55.004;73.342;2022-10-31T07:45:38;100957.03;;;3.26;54.57
69737;BME280;64476;55.004;73.342;2022-10-31T07:48:32;100942.09;;;3.15;54.59
69737;BME280;64476;55.004;73.342;2022-10-31T07:51:17;100933.22;;;3.21;54.51
69737;BME280;64476;55.004;73.342;2022-10-31T07:54:06;100896.03;;;3.08;54.19
69737;BME280;64476;55.004;73.342;2022-10-31T07:56:32;100906.41;;;3.24;54.31
69737;BME280;64476;55.004;73.342;2022-10-31T07:58:59;100944.69;;;3.49;54.22
69737;BME280;64476;55.004;73.342;2022-10-31T08:01:26;100951.22;;;3.56;54.13
69737;BME280;64476;55.004;73.342;2022-10-31T08:04:18;100941.97;;;3.52;54.15
69737;BME280;64476;55.004;73.342;2022-10-31T08:06:54;100955.78;;;3.51;53.89
69737;BME280;64476;55.004;73.342;2022-10-31T08:09:31;100940.91;;;3.38;54.15
69737;BME280;64476;55.004;73.342;2022-10-31T08:12:03;100978.63;;;3.58;53.61
69737;BME280;64476;55.004;73.342;2022-10-31T08:14:32;100959.19;;;3.51;54.27
69737;BME280;64476;55.004;73.342;2022-10-31T08:17:00;100889.06;;;3.10;54.27
69737;BME280;64476;55.004;73.342;2022-10-31T08:19:46;100970.72;;;3.61;54.14
69737;BME280;64476;55.004;73.342;2022-10-31T08:22:34;100938.25;;;3.40;53.86
69737;BME280;64476;55.004;73.342;2022-10-31T08:25:01;100976.31;;;3.70;54.01
69737;BME280;64476;55.004;73.342;2022-10-31T08:27:28;100949.00;;;3.66;54.09
69737;BME280;64476;55.004;73.342;2022-10-31T08:30:36;100956.50;;;3.70;53.93
69737;BME280;64476;55.004;73.342;2022-10-31T08:33:21;100857.56;;;3.21;53.83
69737;BME280;64476;55.004;73.342;2022-10-31T08:36:14;100942.44;;;3.76;53.90
69737;BME280;64476;55.004;73.342;2022-10-31T08:38:55;100963.94;;;3.92;53.84
69737;BME280;64476;55.004;73.342;2022-10-31T08:41:21;100935.59;;;3.75;53.59
69737;BME280;64476;55.004;73.342;2022-10-31T08:43:53;100961.47;;;3.91;53.23
69737;BME280;64476;55.004;73.342;2022-10-31T08:46:29;100962.03;;;3.80;53.46
69737;BME280;64476;55.004;73.342;2022-10-31T08:48:56;100964.59;;;3.80;53.80
69737;BME280;64476;55.004;73.342;2022-10-31T08:51:23;100967.84;;;3.83;53.51
69737;BME280;64476;55.004;73.342;2022-10-31T08:53:58;100927.50;;;3.65;53.50
69737;BME280;64476;55.004;73.342;2022-10-31T08:57:05;100968.19;;;3.93;53.74
69737;BME280;64476;55.004;73.342;2022-10-31T08:59:44;100933.91;;;3.74;53.94
69737;BME280;64476;55.004;73.342;2022-10-31T09:02:58;100972.28;;;3.97;53.62
69737;BME280;64476;55.004;73.342;2022-10-31T09:05:29;100926.16;;;3.74;53.59
69737;BME280;64476;55.004;73.342;2022-10-31T09:08:03;100966.94;;;4.00;53.89
69737;BME280;64476;55.004;73.342;2022-10-31T09:10:32;100943.53;;;3.87;53.86
69737;BME280;64476;55.004;73.342;2022-10-31T09:13:01;100956.28;;;3.91;53.95
69737;BME280;64476;55.004;73.342;2022-10-31T09:16:25;100904.56;;;3.59;53.13
69737;BME280;64476;55.004;73.342;2022-10-31T09:18:54;100941.56;;;3.75;53.66
69737;BME280;64476;55.004;73.342;2022-10-31T09:21:20;100905.97;;;3.49;53.48
69737;BME280;64476;55.004;73.342;2022-10-31T09:23:47;100922.97;;;3.53;53.80
69737;BME280;64476;55.004;73.342;2022-10-31T09:26:14;100977.53;;;3.96;53.32
69737;BME280;64476;55.004;73.342;2022-10-31T09:28:49;100904.88;;;3.53;53.10
69737;BME280;64476;55.004;73.342;2022-10-31T09:31:17;100934.50;;;3.79;53.05
69737;BME280;64476;55.004;73.342;2022-10-31T09:33:55;100982.66;;;4.13;53.13
69737;BME280;64476;55.004;73.342;2022-10-31T09:36:46;100995.16;;;4.21;53.14
69737;BME280;64476;55.004;73.342;2022-10-31T09:39:28;100931.44;;;3.88;52.86
69737;BME280;64476;55.004;73.342;2022-10-31T09:54:33;101012.56;;;4.17;52.94
69737;BME280;64476;55.004;73.342;2022-10-31T09:57:02;100920.16;;;3.57;52.90
69737;BME280;64476;55.004;73.342;2022-10-31T09:59:34;100979.75;;;3.86;53.17
69737;BME280;64476;55.004;73.342;2022-10-31T10:02:16;100976.91;;;3.75;52.78
69737;BME280;64476;55.004;73.342;2022-10-31T10:04:51;101013.03;;;3.92;53.00
69737;BME280;64476;55.004;73.342;2022-10-31T10:08:12;100972.97;;;3.68;53.15
69737;BME280;64476;55.004;73.342;2022-10-31T10:20:51;101018.50;;;3.86;53.13
69737;BME280;64476;55.004;73.342;2022-10-31T10:27:05;101023.38;;;3.92;53.32
69737;BME280;64476;55.004;73.342;2022-10-31T10:35:10;101026.25;;;3.86;53.30
69737;BME280;64476;55.004;73.342;2022-10-31T10:37:38;101045.41;;;3.82;53.51
69737;BME280;64476;55.004;73.342;2022-10-31T10:40:19;101039.81;;;3.74;53.20
69737;BME280;64476;55.004;73.342;2022-10-31T10:46:43;101060.56;;;3.72;53.66
69737;BME280;64476;55.004;73.342;2022-10-31T10:49:52;101019.50;;;3.50;53.55
69737;BME280;64476;55.004;73.342;2022-10-31T10:58:39;100972.13;;;3.17;53.63
69737;BME280;64476;55.004;73.342;2022-10-31T11:01:12;101050.09;;;3.58;53.98
69737;BME280;64476;55.004;73.342;2022-10-31T11:03:42;101034.75;;;3.37;54.03
69737;BME280;64476;55.004;73.342;2022-10-31T11:06:24;101038.94;;;3.40;53.85
69737;BME280;64476;55.004;73.342;2022-10-31T11:08:52;101010.09;;;3.14;54.07
69737;BME280;64476;55.004;73.342;2022-10-31T11:11:29;100996.88;;;3.03;54.08
69737;BME280;64476;55.004;73.342;2022-10-31T11:14:04;101057.44;;;3.31;54.46
69737;BME280;64476;55.004;73.342;2022-10-31T11:22:47;101054.50;;;3.21;54.65
69737;BME280;64476;55.004;73.342;2022-10-31T11:28:07;101052.25;;;2.96;55.47
69737;BME280;64476;55.004;73.342;2022-10-31T11:33:24;101048.59;;;2.64;55.82
69737;BME280;64476;55.004;73.342;2022-10-31T11:36:24;101061.59;;;2.62;55.63
69737;BME280;64476;55.004;73.342;2022-10-31T11:38:53;101071.75;;;2.65;55.95
69737;BME280;64476;55.004;73.342;2022-10-31T11:41:34;101021.53;;;2.36;56.43
69737;BME280;64476;55.004;73.342;2022-10-31T11:49:45;101065.06;;;2.61;56.04
69737;BME280;64476;55.004;73.342;2022-10-31T11:52:19;101069.66;;;2.74;55.82
69737;BME280;64476;55.004;73.342;2022-10-31T11:55:34;101087.81;;;2.89;55.97
69737;BME280;64476;55.004;73.342;2022-10-31T12:04:11;101077.44;;;2.72;56.47
69737;BME280;64476;55.004;73.342;2022-10-31T12:06:44;101079.31;;;2.69;56.34
69737;BME280;64476;55.004;73.342;2022-10-31T12:15:31;101046.13;;;2.25;57.28
69737;BME280;64476;55.004;73.342;2022-10-31T12:21:19;101100.31;;;2.42;57.60
69737;BME280;64476;55.004;73.342;2022-10-31T12:32:37;101110.00;;;2.37;57.79
69737;BME280;64476;55.004;73.342;2022-10-31T12:35:43;101050.34;;;2.07;58.04
69737;BME280;64476;55.004;73.342;2022-10-31T12:41:07;101106.22;;;2.25;58.33
69737;BME280;64476;55.004;73.342;2022-10-31T12:55:58;101111.75;;;2.16;58.62
69737;BME280;64476;55.004;73.342;2022-10-31T13:04:39;101108.09;;;2.01;59.24
69737;BME280;64476;55.004;73.342;2022-10-31T13:07:07;101107.06;;;2.05;59.03
69737;BME280;64476;55.004;73.342;2022-10-31T13:12:39;101074.22;;;1.91;58.49
69737;BME280;64476;55.004;73.342;2022-10-31T13:17:43;101098.91;;;1.96;58.98
69737;BME280;64476;55.004;73.342;2022-10-31T13:25:57;101130.16;;;2.27;58.83
69737;BME280;64476;55.004;73.342;2022-10-31T13:28:35;101136.81;;;2.33;58.85
69737;BME280;64476;55.004;73.342;2022-10-31T13:31:03;101078.88;;;2.02;58.66
69737;BME280;64476;55.004;73.342;2022-10-31T13:33:48;101135.19;;;2.30;58.75
69737;BME280;64476;55.004;73.342;2022-10-31T13:45:17;101094.72;;;1.73;59.47
69737;BME280;64476;55.004;73.342;2022-10-31T13:47:59;101066.53;;;1.49;60.12
69737;BME280;64476;55.004;73.342;2022-10-31T13:51:03;101062.44;;;1.45;59.57
69737;BME280;64476;55.004;73.342;2022-10-31T13:56:50;101121.19;;;1.76;59.76
69737;BME280;64476;55.004;73.342;2022-10-31T13:59:24;101084.47;;;1.51;59.52
69737;BME280;64476;55.004;73.342;2022-10-31T14:01:58;101152.63;;;1.84;60.04
69737;BME280;64476;55.004;73.342;2022-10-31T14:07:47;101157.19;;;1.78;60.18
69737;BME280;64476;55.004;73.342;2022-10-31T14:10:27;101156.06;;;1.83;60.50
69737;BME280;64476;55.004;73.342;2022-10-31T14:13:07;101148.47;;;1.80;60.52
69737;BME280;64476;55.004;73.342;2022-10-31T14:18:44;101102.19;;;1.58;60.25
69737;BME280;64476;55.004;73.342;2022-10-31T14:29:47;101120.03;;;1.63;60.54
69737;BME280;64476;55.004;73.342;2022-10-31T14:34:42;101153.13;;;1.92;60.79
69737;BME280;64476;55.004;73.342;2022-10-31T14:51:49;101164.50;;;1.87;60.97
69737;BME280;64476;55.004;73.342;2022-10-31T14:54:33;101141.22;;;1.69;60.51
69737;BME280;64476;55.004;73.342;2022-10-31T14:57:44;101173.13;;;1.86;60.96
69737;BME280;64476;55.004;73.342;2022-10-31T15:00:23;101129.41;;;1.64;60.17
69737;BME280;64476;55.004;73.342;2022-10-31T15:05:31;101170.69;;;1.83;60.50
69737;BME280;64476;55.004;73.342;2022-10-31T15:08:00;101154.72;;;1.75;60.53
69737;BME280;64476;55.004;73.342;2022-10-31T15:10:32;101141.34;;;1.66;60.55
69737;BME280;64476;55.004;73.342;2022-10-31T15:16:09;101121.38;;;1.51;60.76
69737;BME280;64476;55.004;73.342;2022-10-31T15:18:46;101154.72;;;1.75;60.53
69737;BME280;64476;55.004;73.342;2022-10-31T15:21:16;101163.28;;;1.75;60.65
69737;BME280;64476;55.004;73.342;2022-10-31T15:23:44;101162.56;;;1.72;60.52
69737;BME280;64476;55.004;73.342;2022-10-31T15:29:20;101129.22;;;1.48;60.61
69737;BME280;64476;55.004;73.342;2022-10-31T15:31:59;101186.25;;;1.80;60.65
69737;BME280;64476;55.004;73.342;2022-10-31T15:34:39;101179.50;;;1.77;60.67
69737;BME280;64476;55.004;73.342;2022-10-31T15:40:17;101184.28;;;1.86;60.71
69737;BME280;64476;55.004;73.342;2022-10-31T15:42:50;101054.41;;;1.10;60.17
69737;BME280;64476;55.004;73.342;2022-10-31T15:45:29;101188.50;;;1.87;60.45
69737;BME280;64476;55.004;73.342;2022-10-31T15:48:03;101175.13;;;1.79;60.57
69737;BME280;64476;55.004;73.342;2022-10-31T15:50:40;101184.00;;;1.72;60.90
69737;BME280;64476;55.004;73.342;2022-10-31T15:59:19;101148.91;;;1.49;60.78
69737;BME280;64476;55.004;73.342;2022-10-31T16:07:48;101119.59;;;1.31;60.33
69737;BME280;64476;55.004;73.342;2022-10-31T16:10:25;101132.03;;;1.42;60.35
69737;BME280;64476;55.004;73.342;2022-10-31T16:12:55;101171.06;;;1.74;60.41
69737;BME280;64476;55.004;73.342;2022-10-31T16:15:21;101171.13;;;1.72;60.36
69737;BME280;64476;55.004;73.342;2022-10-31T16:17:58;101144.97;;;1.61;59.99
69737;BME280;64476;55.004;73.342;2022-10-31T16:20:28;101178.72;;;1.75;60.13
69737;BME280;64476;55.004;73.342;2022-10-31T16:23:01;101179.63;;;1.74;60.16
69737;BME280;64476;55.004;73.342;2022-10-31T16:25:36;101147.28;;;1.47;59.74
69737;BME280;64476;55.004;73.342;2022-10-31T16:28:19;101171.63;;;1.60;60.05
69737;BME280;64476;55.004;73.342;2022-10-31T16:31:28;101187.66;;;1.66;59.81
69737;BME280;64476;55.004;73.342;2022-10-31T16:34:15;101136.75;;;1.31;59.79
69737;BME280;64476;55.004;73.342;2022-10-31T16:36:43;101119.78;;;1.05;59.73
69737;BME280;64476;55.004;73.342;2022-10-31T16:39:09;101204.72;;;1.47;60.05
69737;BME280;64476;55.004;73.342;2022-10-31T16:41:41;101192.00;;;1.44;59.81
69737;BME280;64476;55.004;73.342;2022-10-31T16:44:25;101176.16;;;1.33;59.83
69737;BME280;64476;55.004;73.342;2022-10-31T16:49:32;101164.22;;;1.30;60.15
69737;BME280;64476;55.004;73.342;2022-10-31T16:52:01;101152.44;;;1.25;59.93
69737;BME280;64476;55.004;73.342;2022-10-31T16:54:28;101147.34;;;1.23;59.66
69737;BME280;64476;55.004;73.342;2022-10-31T16:57:28;101179.28;;;1.39;59.44
69737;BME280;64476;55.004;73.342;2022-10-31T16:59:56;101165.59;;;1.39;59.42
69737;BME280;64476;55.004;73.342;2022-10-31T17:02:33;101104.66;;;0.97;59.17
69737;BME280;64476;55.004;73.342;2022-10-31T17:05:00;101115.34;;;1.08;59.36
69737;BME280;64476;55.004;73.342;2022-10-31T17:07:26;101182.00;;;1.36;59.59
69737;BME280;64476;55.004;73.342;2022-10-31T17:09:53;101149.22;;;1.19;59.34
69737;BME280;64476;55.004;73.342;2022-10-31T17:12:25;101165.25;;;1.26;59.32
69737;BME280;64476;55.004;73.342;2022-10-31T17:14:52;101188.94;;;1.34;59.32
69737;BME280;64476;55.004;73.342;2022-10-31T17:17:19;101157.75;;;1.20;59.24
69737;BME280;64476;55.004;73.342;2022-10-31T17:19:45;101176.97;;;1.33;59.07
69737;BME280;64476;55.004;73.342;2022-10-31T17:22:13;101177.22;;;1.27;58.93
69737;BME280;64476;55.004;73.342;2022-10-31T17:24:40;101141.31;;;1.02;59.21
69737;BME280;64476;55.004;73.342;2022-10-31T17:27:15;101128.41;;;1.04;58.86
69737;BME280;64476;55.004;73.342;2022-10-31T17:29:47;101170.44;;;1.25;59.32
69737;BME280;64476;55.004;73.342;2022-10-31T17:32:13;101158.84;;;1.14;58.84
69737;BME280;64476;55.004;73.342;2022-10-31T17:37:43;101162.31;;;1.13;59.01
69737;BME280;64476;55.004;73.342;2022-10-31T17:40:11;101145.69;;;1.00;58.85
69737;BME280;64476;55.004;73.342;2022-10-31T17:42:51;101170.13;;;1.10;58.45
69737;BME280;64476;55.004;73.342;2022-10-31T17:45:19;101148.53;;;0.92;58.89
69737;BME280;64476;55.004;73.342;2022-10-31T17:47:50;101203.31;;;1.18;58.58
69737;BME280;64476;55.004;73.342;2022-10-31T17:50:27;101186.53;;;1.08;58.47
69737;BME280;64476;55.004;73.342;2022-10-31T17:52:58;101204.06;;;1.20;58.26
69737;BME280;64476;55.004;73.342;2022-10-31T17:55:30;101175.97;;;0.92;58.71
69737;BME280;64476;55.004;73.342;2022-10-31T17:58:04;101190.41;;;0.96;58.36
69737;BME280;64476;55.004;73.342;2022-10-31T18:00:30;101196.31;;;0.98;58.70